sensor_id;sensor_type;location;lat;lon;timestamp;P1;durP1;ratioP1;P2;durP2;ratioP2
77280;SDS011;66339;47.262;17.144;2023-02-23T05:16:17;4.75;;;3.42;;
77280;SDS011;66339;47.262;17.144;2023-02-23T05:46:57;8.50;;;5.05;;
77280;SDS011;66339;47.262;17.144;2023-02-23T05:49:30;8.75;;;5.53;;
77280;SDS011;66339;47.262;17.144;2023-02-23T05:52:02;8.00;;;5.00;;
77280;SDS011;66339;47.262;17.144;2023-02-23T05:54:31;6.20;;;4.20;;
77280;SDS011;66339;47.262;17.144;2023-02-23T05:57:02;7.45;;;3.92;;
77280;SDS011;66339;47.262;17.144;2023-02-23T06:02:45;5.90;;;3.95;;
77280;SDS011;66339;47.262;17.144;2023-02-23T06:05:12;5.28;;;3.30;;
77280;SDS011;66339;47.262;17.144;2023-02-23T06:07:42;9.90;;;3.92;;
77280;SDS011;66339;47.262;17.144;2023-02-23T06:10:09;8.05;;;4.10;;
77280;SDS011;66339;47.262;17.144;2023-02-23T06:12:40;5.82;;;3.30;;
77280;SDS011;66339;47.262;17.144;2023-02-23T06:15:07;8.85;;;3.70;;
77280;SDS011;66339;47.262;17.144;2023-02-23T06:17:35;6.25;;;3.60;;
77280;SDS011;66339;47.262;17.144;2023-02-23T06:20:03;7.53;;;3.30;;
77280;SDS011;66339;47.262;17.144;2023-02-23T06:22:36;8.65;;;3.20;;
77280;SDS011;66339;47.262;17.144;2023-02-23T06:25:03;7.20;;;3.37;;
77280;SDS011;66339;47.262;17.144;2023-02-23T06:27:33;9.50;;;3.65;;
77280;SDS011;66339;47.262;17.144;2023-02-23T06:30:01;11.55;;;3.53;;
77280;SDS011;66339;47.262;17.144;2023-02-23T06:32:28;9.82;;;3.42;;
77280;SDS011;66339;47.262;17.144;2023-02-23T06:34:58;8.68;;;3.40;;
77280;SDS011;66339;47.262;17.144;2023-02-23T06:37:29;10.25;;;3.78;;
77280;SDS011;66339;47.262;17.144;2023-02-23T06:40:02;9.93;;;3.72;;
77280;SDS011;66339;47.262;17.144;2023-02-23T06:42:33;6.85;;;2.97;;
77280;SDS011;66339;47.262;17.144;2023-02-23T06:45:01;11.65;;;3.42;;
77280;SDS011;66339;47.262;17.144;2023-02-23T06:47:29;7.60;;;3.53;;
77280;SDS011;66339;47.262;17.144;2023-02-23T06:49:59;5.15;;;3.47;;
77280;SDS011;66339;47.262;17.144;2023-02-23T06:52:27;6.72;;;3.15;;
77280;SDS011;66339;47.262;17.144;2023-02-23T06:55:00;15.13;;;4.07;;
77280;SDS011;66339;47.262;17.144;2023-02-23T06:57:29;11.25;;;3.70;;
77280;SDS011;66339;47.262;17.144;2023-02-23T06:59:59;6.40;;;3.35;;
77280;SDS011;66339;47.262;17.144;2023-02-23T07:05:09;6.90;;;3.70;;
77280;SDS011;66339;47.262;17.144;2023-02-23T07:15:55;7.05;;;3.42;;
77280;SDS011;66339;47.262;17.144;2023-02-23T07:18:24;8.25;;;3.60;;
77280;SDS011;66339;47.262;17.144;2023-02-23T07:20:54;5.62;;;3.40;;
77280;SDS011;66339;47.262;17.144;2023-02-23T07:23:28;9.00;;;4.00;;
77280;SDS011;66339;47.262;17.144;2023-02-23T07:25:56;5.37;;;3.50;;
77280;SDS011;66339;47.262;17.144;2023-02-23T07:33:54;7.03;;;3.33;;
77280;SDS011;66339;47.262;17.144;2023-02-23T07:36:24;8.43;;;3.67;;
77280;SDS011;66339;47.262;17.144;2023-02-23T07:38:54;5.40;;;3.37;;
77280;SDS011;66339;47.262;17.144;2023-02-23T07:41:25;5.22;;;3.42;;
77280;SDS011;66339;47.262;17.144;2023-02-23T07:43:58;5.95;;;3.50;;
77280;SDS011;66339;47.262;17.144;2023-02-23T07:46:25;5.70;;;3.10;;
77280;SDS011;66339;47.262;17.144;2023-02-23T07:48:55;7.62;;;3.60;;
77280;SDS011;66339;47.262;17.144;2023-02-23T07:51:27;7.93;;;3.58;;
77280;SDS011;66339;47.262;17.144;2023-02-23T07:53:55;7.47;;;3.85;;
77280;SDS011;66339;47.262;17.144;2023-02-23T07:56:28;9.55;;;3.90;;
77280;SDS011;66339;47.262;17.144;2023-02-23T08:01:28;11.95;;;3.20;;
77280;SDS011;66339;47.262;17.144;2023-02-23T08:23:30;11.98;;;4.00;;
77280;SDS011;66339;47.262;17.144;2023-02-23T08:26:00;7.57;;;3.65;;
77280;SDS011;66339;47.262;17.144;2023-02-23T08:28:28;6.10;;;3.53;;
77280;SDS011;66339;47.262;17.144;2023-02-23T08:30:55;8.00;;;3.70;;
77280;SDS011;66339;47.262;17.144;2023-02-23T08:33:23;13.32;;;3.92;;
77280;SDS011;66339;47.262;17.144;2023-02-23T08:35:50;11.50;;;3.78;;
77280;SDS011;66339;47.262;17.144;2023-02-23T08:38:17;11.05;;;3.65;;
77280;SDS011;66339;47.262;17.144;2023-02-23T08:40:46;14.93;;;3.62;;
77280;SDS011;66339;47.262;17.144;2023-02-23T08:43:13;8.20;;;3.62;;
77280;SDS011;66339;47.262;17.144;2023-02-23T08:45:41;6.68;;;3.53;;
77280;SDS011;66339;47.262;17.144;2023-02-23T08:48:08;8.98;;;3.50;;
77280;SDS011;66339;47.262;17.144;2023-02-23T08:50:35;8.68;;;3.30;;
77280;SDS011;66339;47.262;17.144;2023-02-23T08:53:04;5.00;;;3.33;;
77280;SDS011;66339;47.262;17.144;2023-02-23T08:55:34;8.82;;;3.62;;
77280;SDS011;66339;47.262;17.144;2023-02-23T08:58:03;4.22;;;3.03;;
77280;SDS011;66339;47.262;17.144;2023-02-23T09:00:30;5.15;;;3.42;;
77280;SDS011;66339;47.262;17.144;2023-02-23T09:03:00;6.53;;;3.50;;
77280;SDS011;66339;47.262;17.144;2023-02-23T09:05:27;5.22;;;3.30;;
77280;SDS011;66339;47.262;17.144;2023-02-23T09:07:54;7.10;;;3.75;;
77280;SDS011;66339;47.262;17.144;2023-02-23T09:10:23;6.07;;;3.12;;
77280;SDS011;66339;47.262;17.144;2023-02-23T09:12:54;6.53;;;3.30;;
77280;SDS011;66339;47.262;17.144;2023-02-23T09:15:21;8.60;;;3.28;;
77280;SDS011;66339;47.262;17.144;2023-02-23T09:17:51;5.50;;;3.08;;
77280;SDS011;66339;47.262;17.144;2023-02-23T09:20:17;6.97;;;3.45;;
77280;SDS011;66339;47.262;17.144;2023-02-23T09:22:44;7.00;;;3.25;;
77280;SDS011;66339;47.262;17.144;2023-02-23T09:25:18;5.75;;;3.40;;
77280;SDS011;66339;47.262;17.144;2023-02-23T09:27:46;4.72;;;2.67;;
77280;SDS011;66339;47.262;17.144;2023-02-23T09:30:15;4.07;;;3.08;;
77280;SDS011;66339;47.262;17.144;2023-02-23T09:32:43;6.40;;;3.30;;
77280;SDS011;66339;47.262;17.144;2023-02-23T09:35:10;4.18;;;3.10;;
77280;SDS011;66339;47.262;17.144;2023-02-23T09:37:37;5.57;;;3.30;;
77280;SDS011;66339;47.262;17.144;2023-02-23T09:40:04;6.47;;;3.35;;
77280;SDS011;66339;47.262;17.144;2023-02-23T09:42:39;9.02;;;3.25;;
77280;SDS011;66339;47.262;17.144;2023-02-23T09:45:28;5.68;;;3.22;;
77280;SDS011;66339;47.262;17.144;2023-02-23T09:50:53;4.20;;;2.72;;
77280;SDS011;66339;47.262;17.144;2023-02-23T09:53:32;4.70;;;3.08;;
77280;SDS011;66339;47.262;17.144;2023-02-23T09:56:03;15.98;;;3.30;;
77280;SDS011;66339;47.262;17.144;2023-02-23T09:58:35;4.57;;;2.95;;
77280;SDS011;66339;47.262;17.144;2023-02-23T10:03:45;6.10;;;2.87;;
77280;SDS011;66339;47.262;17.144;2023-02-23T10:06:19;5.15;;;2.97;;
77280;SDS011;66339;47.262;17.144;2023-02-23T10:17:05;4.03;;;3.00;;
77280;SDS011;66339;47.262;17.144;2023-02-23T10:19:52;6.22;;;2.90;;
77280;SDS011;66339;47.262;17.144;2023-02-23T10:22:40;4.15;;;3.00;;
77280;SDS011;66339;47.262;17.144;2023-02-23T10:25:12;5.28;;;2.97;;
77280;SDS011;66339;47.262;17.144;2023-02-23T10:27:47;5.47;;;2.78;;
77280;SDS011;66339;47.262;17.144;2023-02-23T10:30:19;4.22;;;2.85;;
77280;SDS011;66339;47.262;17.144;2023-02-23T10:35:30;4.65;;;2.75;;
77280;SDS011;66339;47.262;17.144;2023-02-23T10:37:57;4.82;;;2.60;;
77280;SDS011;66339;47.262;17.144;2023-02-23T10:40:29;5.70;;;3.50;;
77280;SDS011;66339;47.262;17.144;2023-02-23T10:45:27;3.53;;;2.65;;
77280;SDS011;66339;47.262;17.144;2023-02-23T10:48:04;3.85;;;2.80;;
77280;SDS011;66339;47.262;17.144;2023-02-23T10:50:38;3.87;;;2.78;;
77280;SDS011;66339;47.262;17.144;2023-02-23T10:53:13;4.37;;;2.85;;
77280;SDS011;66339;47.262;17.144;2023-02-23T10:55:44;5.07;;;2.78;;
77280;SDS011;66339;47.262;17.144;2023-02-23T10:58:13;3.70;;;3.00;;
77280;SDS011;66339;47.262;17.144;2023-02-23T11:00:58;5.28;;;2.80;;
77280;SDS011;66339;47.262;17.144;2023-02-23T11:03:42;4.30;;;2.85;;
77280;SDS011;66339;47.262;17.144;2023-02-23T11:06:31;4.03;;;2.85;;
77280;SDS011;66339;47.262;17.144;2023-02-23T11:09:33;3.35;;;2.50;;
77280;SDS011;66339;47.262;17.144;2023-02-23T11:12:18;6.15;;;2.95;;
77280;SDS011;66339;47.262;17.144;2023-02-23T11:14:48;3.87;;;2.70;;
77280;SDS011;66339;47.262;17.144;2023-02-23T11:22:43;3.67;;;2.60;;
77280;SDS011;66339;47.262;17.144;2023-02-23T11:25:24;4.30;;;2.80;;
77280;SDS011;66339;47.262;17.144;2023-02-23T11:27:54;3.50;;;2.30;;
77280;SDS011;66339;47.262;17.144;2023-02-23T11:30:23;6.10;;;2.90;;
77280;SDS011;66339;47.262;17.144;2023-02-23T11:32:59;4.07;;;2.80;;
77280;SDS011;66339;47.262;17.144;2023-02-23T11:35:28;4.90;;;2.50;;
77280;SDS011;66339;47.262;17.144;2023-02-23T11:37:57;5.35;;;2.47;;
77280;SDS011;66339;47.262;17.144;2023-02-23T11:40:28;3.62;;;2.58;;
77280;SDS011;66339;47.262;17.144;2023-02-23T11:42:57;5.80;;;2.78;;
77280;SDS011;66339;47.262;17.144;2023-02-23T11:45:55;4.05;;;2.50;;
77280;SDS011;66339;47.262;17.144;2023-02-23T11:48:26;6.35;;;2.50;;
77280;SDS011;66339;47.262;17.144;2023-02-23T11:50:57;11.43;;;2.80;;
77280;SDS011;66339;47.262;17.144;2023-02-23T11:53:45;4.93;;;2.50;;
77280;SDS011;66339;47.262;17.144;2023-02-23T11:56:19;4.55;;;2.65;;
77280;SDS011;66339;47.262;17.144;2023-02-23T11:58:49;4.05;;;2.50;;
77280;SDS011;66339;47.262;17.144;2023-02-23T12:01:38;3.08;;;2.30;;
77280;SDS011;66339;47.262;17.144;2023-02-23T12:04:08;5.18;;;2.35;;
77280;SDS011;66339;47.262;17.144;2023-02-23T12:06:55;3.87;;;2.28;;
77280;SDS011;66339;47.262;17.144;2023-02-23T12:09:50;3.90;;;2.20;;
77280;SDS011;66339;47.262;17.144;2023-02-23T12:12:26;5.35;;;2.53;;
77280;SDS011;66339;47.262;17.144;2023-02-23T12:15:01;9.73;;;3.22;;
77280;SDS011;66339;47.262;17.144;2023-02-23T12:17:42;11.98;;;2.65;;
77280;SDS011;66339;47.262;17.144;2023-02-23T12:20:16;7.90;;;2.83;;
77280;SDS011;66339;47.262;17.144;2023-02-23T12:22:57;4.55;;;2.60;;
77280;SDS011;66339;47.262;17.144;2023-02-23T12:25:39;4.37;;;2.33;;
77280;SDS011;66339;47.262;17.144;2023-02-23T12:28:18;4.12;;;2.30;;
77280;SDS011;66339;47.262;17.144;2023-02-23T12:30:53;3.37;;;2.50;;
77280;SDS011;66339;47.262;17.144;2023-02-23T12:38:55;6.93;;;2.60;;
77280;SDS011;66339;47.262;17.144;2023-02-23T12:44:51;5.07;;;2.50;;
77280;SDS011;66339;47.262;17.144;2023-02-23T12:47:43;3.72;;;2.30;;
77280;SDS011;66339;47.262;17.144;2023-02-23T12:50:10;3.80;;;2.35;;
77280;SDS011;66339;47.262;17.144;2023-02-23T12:55:43;4.15;;;2.30;;
77280;SDS011;66339;47.262;17.144;2023-02-23T12:58:27;4.53;;;2.30;;
77280;SDS011;66339;47.262;17.144;2023-02-23T13:01:18;3.92;;;2.37;;
77280;SDS011;66339;47.262;17.144;2023-02-23T13:07:38;10.25;;;2.50;;
77280;SDS011;66339;47.262;17.144;2023-02-23T13:15:29;3.80;;;2.28;;
77280;SDS011;66339;47.262;17.144;2023-02-23T13:18:13;4.82;;;2.20;;
77280;SDS011;66339;47.262;17.144;2023-02-23T13:20:46;3.80;;;2.10;;
77280;SDS011;66339;47.262;17.144;2023-02-23T13:31:33;4.32;;;2.17;;
77280;SDS011;66339;47.262;17.144;2023-02-23T13:34:11;3.50;;;2.30;;
77280;SDS011;66339;47.262;17.144;2023-02-23T13:36:50;3.45;;;2.10;;
77280;SDS011;66339;47.262;17.144;2023-02-23T13:39:24;3.25;;;2.15;;
77280;SDS011;66339;47.262;17.144;2023-02-23T13:53:05;3.95;;;2.53;;
77280;SDS011;66339;47.262;17.144;2023-02-23T13:55:35;9.23;;;2.47;;
77280;SDS011;66339;47.262;17.144;2023-02-23T13:58:16;6.45;;;2.35;;
77280;SDS011;66339;47.262;17.144;2023-02-23T14:01:34;4.72;;;2.25;;
77280;SDS011;66339;47.262;17.144;2023-02-23T14:03:51;4.62;;;2.70;;
77280;SDS011;66339;47.262;17.144;2023-02-23T14:06:21;4.32;;;2.35;;
77280;SDS011;66339;47.262;17.144;2023-02-23T14:08:59;3.15;;;2.15;;
77280;SDS011;66339;47.262;17.144;2023-02-23T14:11:47;3.85;;;2.20;;
77280;SDS011;66339;47.262;17.144;2023-02-23T14:20:19;3.12;;;2.28;;
77280;SDS011;66339;47.262;17.144;2023-02-23T14:25:43;2.62;;;2.05;;
77280;SDS011;66339;47.262;17.144;2023-02-23T14:28:22;6.82;;;2.53;;
77280;SDS011;66339;47.262;17.144;2023-02-23T14:31:03;2.95;;;1.92;;
77280;SDS011;66339;47.262;17.144;2023-02-23T14:41:24;2.60;;;2.05;;
77280;SDS011;66339;47.262;17.144;2023-02-23T14:44:05;5.35;;;2.50;;
77280;SDS011;66339;47.262;17.144;2023-02-23T14:47:06;3.85;;;2.40;;
77280;SDS011;66339;47.262;17.144;2023-02-23T14:49:41;4.85;;;2.35;;
77280;SDS011;66339;47.262;17.144;2023-02-23T14:52:16;3.58;;;2.35;;
77280;SDS011;66339;47.262;17.144;2023-02-23T14:54:45;3.50;;;2.40;;
77280;SDS011;66339;47.262;17.144;2023-02-23T15:02:24;3.53;;;2.15;;
77280;SDS011;66339;47.262;17.144;2023-02-23T15:04:54;6.15;;;2.60;;
77280;SDS011;66339;47.262;17.144;2023-02-23T15:12:29;3.37;;;2.15;;
77280;SDS011;66339;47.262;17.144;2023-02-23T15:15:01;3.10;;;1.87;;
77280;SDS011;66339;47.262;17.144;2023-02-23T15:17:32;5.10;;;2.63;;
77280;SDS011;66339;47.262;17.144;2023-02-23T15:20:03;3.87;;;2.33;;
77280;SDS011;66339;47.262;17.144;2023-02-23T15:22:42;7.22;;;2.80;;
77280;SDS011;66339;47.262;17.144;2023-02-23T15:25:18;6.47;;;2.53;;
77280;SDS011;66339;47.262;17.144;2023-02-23T15:27:48;2.67;;;2.15;;
77280;SDS011;66339;47.262;17.144;2023-02-23T15:30:29;3.95;;;2.37;;
77280;SDS011;66339;47.262;17.144;2023-02-23T15:33:10;5.72;;;2.60;;
77280;SDS011;66339;47.262;17.144;2023-02-23T15:35:48;5.35;;;2.53;;
77280;SDS011;66339;47.262;17.144;2023-02-23T15:38:21;3.92;;;2.30;;
77280;SDS011;66339;47.262;17.144;2023-02-23T15:41:14;4.22;;;2.50;;
77280;SDS011;66339;47.262;17.144;2023-02-23T15:44:01;3.97;;;2.60;;
77280;SDS011;66339;47.262;17.144;2023-02-23T15:46:41;3.50;;;2.35;;
77280;SDS011;66339;47.262;17.144;2023-02-23T15:49:11;4.18;;;2.60;;
77280;SDS011;66339;47.262;17.144;2023-02-23T15:51:42;2.70;;;2.12;;
77280;SDS011;66339;47.262;17.144;2023-02-23T15:57:17;3.20;;;2.40;;
77280;SDS011;66339;47.262;17.144;2023-02-23T15:59:46;3.65;;;2.53;;
77280;SDS011;66339;47.262;17.144;2023-02-23T16:02:17;4.75;;;2.70;;
77280;SDS011;66339;47.262;17.144;2023-02-23T16:04:46;5.00;;;2.65;;
77280;SDS011;66339;47.262;17.144;2023-02-23T16:09:46;3.67;;;2.50;;
77280;SDS011;66339;47.262;17.144;2023-02-23T16:12:22;3.80;;;2.55;;
77280;SDS011;66339;47.262;17.144;2023-02-23T16:15:02;3.90;;;2.60;;
77280;SDS011;66339;47.262;17.144;2023-02-23T16:17:45;4.15;;;2.70;;
77280;SDS011;66339;47.262;17.144;2023-02-23T16:20:20;4.45;;;2.83;;
77280;SDS011;66339;47.262;17.144;2023-02-23T16:23:05;3.17;;;2.30;;
77280;SDS011;66339;47.262;17.144;2023-02-23T16:25:40;3.33;;;2.53;;
77280;SDS011;66339;47.262;17.144;2023-02-23T16:28:11;3.03;;;2.37;;
77280;SDS011;66339;47.262;17.144;2023-02-23T16:30:43;4.15;;;2.42;;
77280;SDS011;66339;47.262;17.144;2023-02-23T16:33:24;3.60;;;2.33;;
77280;SDS011;66339;47.262;17.144;2023-02-23T16:36:13;5.32;;;2.65;;
77280;SDS011;66339;47.262;17.144;2023-02-23T16:38:55;4.45;;;2.80;;
77280;SDS011;66339;47.262;17.144;2023-02-23T16:41:24;3.80;;;2.72;;
77280;SDS011;66339;47.262;17.144;2023-02-23T16:43:56;3.90;;;2.90;;
77280;SDS011;66339;47.262;17.144;2023-02-23T16:46:29;3.25;;;2.55;;
77280;SDS011;66339;47.262;17.144;2023-02-23T16:49:17;4.00;;;2.78;;
77280;SDS011;66339;47.262;17.144;2023-02-23T16:51:47;5.55;;;3.22;;
77280;SDS011;66339;47.262;17.144;2023-02-23T16:54:14;9.38;;;3.37;;
77280;SDS011;66339;47.262;17.144;2023-02-23T16:56:44;12.32;;;3.42;;
77280;SDS011;66339;47.262;17.144;2023-02-23T16:59:13;5.75;;;3.00;;
77280;SDS011;66339;47.262;17.144;2023-02-23T17:01:42;10.63;;;2.80;;
77280;SDS011;66339;47.262;17.144;2023-02-23T17:04:13;5.85;;;2.60;;
77280;SDS011;66339;47.262;17.144;2023-02-23T17:06:40;7.68;;;3.03;;
77280;SDS011;66339;47.262;17.144;2023-02-23T17:09:11;5.95;;;2.47;;
77280;SDS011;66339;47.262;17.144;2023-02-23T17:11:44;5.45;;;3.10;;
77280;SDS011;66339;47.262;17.144;2023-02-23T17:14:18;6.95;;;3.10;;
77280;SDS011;66339;47.262;17.144;2023-02-23T17:16:49;8.57;;;2.92;;
77280;SDS011;66339;47.262;17.144;2023-02-23T17:19:16;7.50;;;2.90;;
77280;SDS011;66339;47.262;17.144;2023-02-23T17:21:46;10.20;;;3.30;;
77280;SDS011;66339;47.262;17.144;2023-02-23T17:24:13;8.88;;;3.05;;
77280;SDS011;66339;47.262;17.144;2023-02-23T17:26:40;14.40;;;3.10;;
77280;SDS011;66339;47.262;17.144;2023-02-23T17:29:10;4.53;;;2.53;;
77280;SDS011;66339;47.262;17.144;2023-02-23T17:31:37;19.90;;;3.10;;
77280;SDS011;66339;47.262;17.144;2023-02-23T17:34:07;16.92;;;2.85;;
77280;SDS011;66339;47.262;17.144;2023-02-23T17:36:42;8.35;;;2.87;;
77280;SDS011;66339;47.262;17.144;2023-02-23T17:39:12;4.82;;;2.78;;
77280;SDS011;66339;47.262;17.144;2023-02-23T17:41:39;14.70;;;3.72;;
77280;SDS011;66339;47.262;17.144;2023-02-23T17:44:06;7.15;;;3.42;;
77280;SDS011;66339;47.262;17.144;2023-02-23T17:46:32;7.15;;;3.10;;
77280;SDS011;66339;47.262;17.144;2023-02-23T17:49:03;5.87;;;2.72;;
77280;SDS011;66339;47.262;17.144;2023-02-23T17:51:30;6.15;;;3.05;;
77280;SDS011;66339;47.262;17.144;2023-02-23T17:54:00;8.63;;;3.10;;
77280;SDS011;66339;47.262;17.144;2023-02-23T17:56:27;6.07;;;3.08;;
77280;SDS011;66339;47.262;17.144;2023-02-23T17:58:56;4.85;;;2.90;;
77280;SDS011;66339;47.262;17.144;2023-02-23T18:01:24;12.07;;;3.20;;
77280;SDS011;66339;47.262;17.144;2023-02-23T18:03:51;9.27;;;3.53;;
77280;SDS011;66339;47.262;17.144;2023-02-23T18:06:20;7.70;;;3.25;;
77280;SDS011;66339;47.262;17.144;2023-02-23T18:08:51;8.68;;;3.05;;
77280;SDS011;66339;47.262;17.144;2023-02-23T18:11:18;7.15;;;3.10;;
77280;SDS011;66339;47.262;17.144;2023-02-23T18:13:45;7.18;;;3.03;;
77280;SDS011;66339;47.262;17.144;2023-02-23T18:16:15;6.05;;;3.22;;
77280;SDS011;66339;47.262;17.144;2023-02-23T18:18:48;5.43;;;3.28;;
77280;SDS011;66339;47.262;17.144;2023-02-23T18:21:17;8.23;;;3.12;;
77280;SDS011;66339;47.262;17.144;2023-02-23T18:26:19;5.68;;;3.10;;
77280;SDS011;66339;47.262;17.144;2023-02-23T18:28:48;9.18;;;3.50;;
77280;SDS011;66339;47.262;17.144;2023-02-23T18:31:19;7.50;;;3.03;;
77280;SDS011;66339;47.262;17.144;2023-02-23T18:33:48;10.13;;;3.20;;
77280;SDS011;66339;47.262;17.144;2023-02-23T18:38:53;6.50;;;3.12;;
77280;SDS011;66339;47.262;17.144;2023-02-23T18:41:24;8.55;;;3.28;;
77280;SDS011;66339;47.262;17.144;2023-02-23T18:44:02;5.50;;;3.00;;
77280;SDS011;66339;47.262;17.144;2023-02-23T18:46:34;7.00;;;2.87;;
77280;SDS011;66339;47.262;17.144;2023-02-23T18:49:01;7.35;;;3.35;;
77280;SDS011;66339;47.262;17.144;2023-02-23T18:51:35;9.30;;;3.22;;
77280;SDS011;66339;47.262;17.144;2023-02-23T18:54:02;5.95;;;3.35;;
77280;SDS011;66339;47.262;17.144;2023-02-23T18:56:32;11.57;;;3.30;;
77280;SDS011;66339;47.262;17.144;2023-02-23T18:58:59;4.87;;;2.95;;
77280;SDS011;66339;47.262;17.144;2023-02-23T19:01:30;8.90;;;3.28;;
77280;SDS011;66339;47.262;17.144;2023-02-23T19:03:59;8.57;;;3.30;;
77280;SDS011;66339;47.262;17.144;2023-02-23T19:06:30;8.18;;;3.47;;
77280;SDS011;66339;47.262;17.144;2023-02-23T19:09:00;5.50;;;3.40;;
77280;SDS011;66339;47.262;17.144;2023-02-23T19:11:31;4.87;;;3.20;;
77280;SDS011;66339;47.262;17.144;2023-02-23T19:14:01;10.63;;;3.58;;
77280;SDS011;66339;47.262;17.144;2023-02-23T19:16:30;8.05;;;3.40;;
77280;SDS011;66339;47.262;17.144;2023-02-23T19:19:02;8.45;;;3.17;;
77280;SDS011;66339;47.262;17.144;2023-02-23T19:21:31;10.60;;;3.72;;
77280;SDS011;66339;47.262;17.144;2023-02-23T19:24:01;10.13;;;3.30;;
77280;SDS011;66339;47.262;17.144;2023-02-23T19:26:32;4.87;;;3.50;;
77280;SDS011;66339;47.262;17.144;2023-02-23T19:29:02;7.05;;;3.72;;
77280;SDS011;66339;47.262;17.144;2023-02-23T19:31:30;8.60;;;3.33;;
77280;SDS011;66339;47.262;17.144;2023-02-23T19:34:00;7.07;;;3.83;;
77280;SDS011;66339;47.262;17.144;2023-02-23T19:36:29;9.75;;;4.00;;
77280;SDS011;66339;47.262;17.144;2023-02-23T19:38:59;8.10;;;3.60;;
77280;SDS011;66339;47.262;17.144;2023-02-23T19:41:29;12.32;;;4.12;;
77280;SDS011;66339;47.262;17.144;2023-02-23T19:44:00;8.50;;;3.95;;
77280;SDS011;66339;47.262;17.144;2023-02-23T19:46:27;6.32;;;3.55;;
77280;SDS011;66339;47.262;17.144;2023-02-23T19:48:54;5.75;;;3.87;;
77280;SDS011;66339;47.262;17.144;2023-02-23T19:51:22;5.65;;;3.67;;
77280;SDS011;66339;47.262;17.144;2023-02-23T19:53:52;6.10;;;3.47;;
77280;SDS011;66339;47.262;17.144;2023-02-23T19:56:20;5.60;;;3.47;;
77280;SDS011;66339;47.262;17.144;2023-02-23T19:58:50;6.00;;;3.72;;
77280;SDS011;66339;47.262;17.144;2023-02-23T20:01:18;8.50;;;3.70;;
77280;SDS011;66339;47.262;17.144;2023-02-23T20:03:47;5.85;;;3.37;;
77280;SDS011;66339;47.262;17.144;2023-02-23T20:06:22;6.60;;;3.45;;
77280;SDS011;66339;47.262;17.144;2023-02-23T20:08:57;5.60;;;3.22;;
77280;SDS011;66339;47.262;17.144;2023-02-23T20:11:24;5.40;;;3.53;;
77280;SDS011;66339;47.262;17.144;2023-02-23T20:13:54;7.07;;;3.47;;
77280;SDS011;66339;47.262;17.144;2023-02-23T20:16:22;4.25;;;3.17;;
77280;SDS011;66339;47.262;17.144;2023-02-23T20:18:50;7.00;;;3.42;;
77280;SDS011;66339;47.262;17.144;2023-02-23T20:21:20;7.00;;;3.65;;
77280;SDS011;66339;47.262;17.144;2023-02-23T20:23:48;6.62;;;3.47;;
77280;SDS011;66339;47.262;17.144;2023-02-23T20:26:20;6.80;;;3.67;;
77280;SDS011;66339;47.262;17.144;2023-02-23T20:28:48;6.93;;;3.20;;
77280;SDS011;66339;47.262;17.144;2023-02-23T20:31:17;6.20;;;3.55;;
77280;SDS011;66339;47.262;17.144;2023-02-23T20:33:51;7.97;;;3.62;;
77280;SDS011;66339;47.262;17.144;2023-02-23T20:36:22;6.37;;;3.83;;
77280;SDS011;66339;47.262;17.144;2023-02-23T20:38:55;4.53;;;3.30;;
77280;SDS011;66339;47.262;17.144;2023-02-23T20:41:22;6.53;;;3.28;;
77280;SDS011;66339;47.262;17.144;2023-02-23T20:43:53;6.32;;;3.20;;
77280;SDS011;66339;47.262;17.144;2023-02-23T20:46:21;6.78;;;3.87;;
77280;SDS011;66339;47.262;17.144;2023-02-23T20:48:52;7.97;;;3.92;;
77280;SDS011;66339;47.262;17.144;2023-02-23T20:51:20;5.75;;;3.80;;
77280;SDS011;66339;47.262;17.144;2023-02-23T20:53:49;4.43;;;3.33;;
77280;SDS011;66339;47.262;17.144;2023-02-23T20:56:20;6.15;;;3.25;;
77280;SDS011;66339;47.262;17.144;2023-02-23T20:58:50;5.90;;;3.45;;
77280;SDS011;66339;47.262;17.144;2023-02-23T21:01:20;4.35;;;3.08;;
77280;SDS011;66339;47.262;17.144;2023-02-23T21:03:52;5.32;;;3.55;;
77280;SDS011;66339;47.262;17.144;2023-02-23T21:06:24;4.57;;;3.60;;
77280;SDS011;66339;47.262;17.144;2023-02-23T21:08:54;9.52;;;3.62;;
77280;SDS011;66339;47.262;17.144;2023-02-23T21:11:22;5.75;;;3.50;;
77280;SDS011;66339;47.262;17.144;2023-02-23T21:13:53;6.70;;;3.35;;
77280;SDS011;66339;47.262;17.144;2023-02-23T21:16:26;4.62;;;3.75;;
77280;SDS011;66339;47.262;17.144;2023-02-23T21:18:56;6.22;;;4.00;;
77280;SDS011;66339;47.262;17.144;2023-02-23T21:21:26;7.30;;;3.10;;
77280;SDS011;66339;47.262;17.144;2023-02-23T21:23:52;5.72;;;3.80;;
77280;SDS011;66339;47.262;17.144;2023-02-23T21:26:25;5.28;;;3.30;;
77280;SDS011;66339;47.262;17.144;2023-02-23T21:28:55;5.68;;;4.00;;
77280;SDS011;66339;47.262;17.144;2023-02-23T21:31:25;4.47;;;3.55;;
77280;SDS011;66339;47.262;17.144;2023-02-23T21:33:55;6.10;;;3.90;;
77280;SDS011;66339;47.262;17.144;2023-02-23T21:36:22;4.60;;;3.40;;
77280;SDS011;66339;47.262;17.144;2023-02-23T21:38:52;5.10;;;3.37;;
77280;SDS011;66339;47.262;17.144;2023-02-23T21:41:22;5.70;;;3.67;;
77280;SDS011;66339;47.262;17.144;2023-02-23T21:43:48;7.15;;;3.83;;
77280;SDS011;66339;47.262;17.144;2023-02-23T21:46:15;6.37;;;3.55;;
77280;SDS011;66339;47.262;17.144;2023-02-23T21:48:45;6.18;;;3.95;;
77280;SDS011;66339;47.262;17.144;2023-02-23T21:51:14;5.65;;;3.80;;
77280;SDS011;66339;47.262;17.144;2023-02-23T21:53:49;7.05;;;3.83;;
77280;SDS011;66339;47.262;17.144;2023-02-23T21:56:20;5.60;;;3.50;;
77280;SDS011;66339;47.262;17.144;2023-02-23T21:58:51;5.15;;;3.65;;
77280;SDS011;66339;47.262;17.144;2023-02-23T22:01:28;4.87;;;3.60;;
77280;SDS011;66339;47.262;17.144;2023-02-23T22:04:02;5.70;;;3.67;;
77280;SDS011;66339;47.262;17.144;2023-02-23T22:06:37;5.37;;;3.80;;
77280;SDS011;66339;47.262;17.144;2023-02-23T22:09:10;4.60;;;3.45;;
77280;SDS011;66339;47.262;17.144;2023-02-23T22:11:43;4.12;;;3.30;;
77280;SDS011;66339;47.262;17.144;2023-02-23T22:14:14;4.97;;;3.70;;
77280;SDS011;66339;47.262;17.144;2023-02-23T22:16:41;6.53;;;3.95;;
77280;SDS011;66339;47.262;17.144;2023-02-23T22:19:11;4.57;;;3.35;;
77280;SDS011;66339;47.262;17.144;2023-02-23T22:24:14;6.00;;;3.78;;
77280;SDS011;66339;47.262;17.144;2023-02-23T22:26:48;5.65;;;3.87;;
77280;SDS011;66339;47.262;17.144;2023-02-23T22:29:24;5.85;;;3.37;;
77280;SDS011;66339;47.262;17.144;2023-02-23T22:31:55;8.45;;;4.10;;
77280;SDS011;66339;47.262;17.144;2023-02-23T22:34:22;5.50;;;3.83;;
77280;SDS011;66339;47.262;17.144;2023-02-23T22:36:55;4.62;;;3.35;;
77280;SDS011;66339;47.262;17.144;2023-02-23T22:39:28;6.82;;;3.72;;
77280;SDS011;66339;47.262;17.144;2023-02-23T22:42:02;5.80;;;3.70;;
77280;SDS011;66339;47.262;17.144;2023-02-23T22:44:31;5.75;;;3.83;;
77280;SDS011;66339;47.262;17.144;2023-02-23T22:47:02;5.43;;;3.90;;
77280;SDS011;66339;47.262;17.144;2023-02-23T22:49:39;5.97;;;3.72;;
77280;SDS011;66339;47.262;17.144;2023-02-23T22:52:05;8.45;;;4.37;;
77280;SDS011;66339;47.262;17.144;2023-02-23T22:54:33;6.95;;;3.97;;
77280;SDS011;66339;47.262;17.144;2023-02-23T22:57:02;5.28;;;4.00;;
77280;SDS011;66339;47.262;17.144;2023-02-23T22:59:35;6.12;;;3.95;;
77280;SDS011;66339;47.262;17.144;2023-02-23T23:02:06;6.30;;;4.03;;
77280;SDS011;66339;47.262;17.144;2023-02-23T23:04:33;5.65;;;3.60;;
77280;SDS011;66339;47.262;17.144;2023-02-23T23:07:00;5.55;;;3.70;;
77280;SDS011;66339;47.262;17.144;2023-02-23T23:09:31;4.95;;;3.53;;
77280;SDS011;66339;47.262;17.144;2023-02-23T23:12:00;4.82;;;3.60;;